Es Castell, Spain
Current Conditions -  °F | °C
As of 9:00 AM on Monday 26 Jan 2015 (Local Time) from LEMH Reporting Station
Broken Clouds Broken Clouds  
Wind Chill: 39°   Ceiling: 4800
Heat Index: 46°   Visibility: 6mi
Dew Point: 34°   Wind: 22mph
Humidity: 62%   Direction: 10°N
Pressure: 30.24"   Gusts: 33mph
Location:  39.88°N, 4.29°E
Report Text: LEMH 260800Z 01019G29KT 9999 FEW035 BKN048 08/01 Q1024
Loading
Personal Weather Stations






























Interactive Weather Map New forecast layout! Learn more

10-Day Weather Forecast

Advertisements
Track Severe Weather on mobile